createdAt,value
2023-01-07T00:01:46.918Z,27.45
2023-01-07T00:04:17.781Z,30.70
2023-01-07T00:06:48.881Z,30.12
2023-01-07T00:09:18.513Z,29.37
2023-01-07T00:11:48.112Z,29.23
2023-01-07T00:14:17.857Z,27.90
2023-01-07T00:16:48.115Z,30.48
2023-01-07T00:19:18.752Z,30.40
2023-01-07T00:21:48.189Z,27.02
2023-01-07T00:24:18.536Z,24.72
2023-01-07T00:26:49.118Z,24.47
2023-01-07T00:29:19.928Z,25.50
2023-01-07T00:31:50.248Z,24.32
2023-01-07T00:34:21.344Z,24.93
2023-01-07T00:36:51.405Z,23.52
2023-01-07T00:39:22.077Z,22.00
2023-01-07T00:42:09.668Z,21.65
2023-01-07T00:44:39.090Z,18.75
2023-01-07T00:47:08.582Z,17.57
2023-01-07T00:49:38.508Z,20.02
2023-01-07T00:52:08.008Z,19.98
2023-01-07T00:54:37.436Z,22.58
2023-01-07T00:57:07.932Z,23.77
2023-01-07T00:59:37.549Z,23.30
2023-01-07T01:02:07.178Z,22.07
2023-01-07T01:04:36.897Z,23.43
2023-01-07T01:07:07.207Z,22.93
2023-01-07T01:09:36.759Z,20.77
2023-01-07T01:12:06.337Z,18.98
2023-01-07T01:14:35.758Z,19.00
2023-01-07T01:17:05.378Z,17.23
2023-01-07T01:19:34.795Z,17.85
2023-01-07T01:22:04.288Z,18.40
2023-01-07T01:24:33.737Z,16.17
2023-01-07T01:27:03.951Z,16.62
2023-01-07T01:29:33.438Z,18.50
2023-01-07T01:32:03.699Z,16.80
2023-01-07T01:34:33.193Z,18.62
2023-01-07T01:37:03.019Z,18.25
2023-01-07T01:39:34.024Z,17.45
2023-01-07T01:42:03.528Z,17.62
2023-01-07T01:44:53.071Z,17.55
2023-01-07T01:47:54.500Z,17.98
2023-01-07T01:50:29.072Z,16.87
2023-01-07T01:53:14.168Z,16.10
2023-01-07T01:55:48.656Z,16.57
2023-01-07T01:58:21.223Z,16.95
2023-01-07T02:00:51.257Z,16.00
2023-01-07T02:03:26.631Z,14.53
2023-01-07T02:05:56.361Z,14.60
2023-01-07T02:08:26.370Z,13.38
2023-01-07T02:11:06.813Z,12.58
2023-01-07T02:13:56.070Z,14.50
2023-01-07T02:16:36.129Z,12.88
2023-01-07T02:19:17.619Z,13.03
2023-01-07T02:22:02.469Z,10.68
2023-01-07T02:24:55.921Z,10.68
2023-01-07T02:27:31.707Z,11.12
2023-01-07T02:30:28.363Z,10.38
2023-01-07T02:33:19.034Z,9.70
2023-01-07T02:36:00.996Z,8.98
2023-01-07T02:38:59.436Z,9.57
2023-01-07T02:42:02.056Z,8.70
2023-01-07T02:44:38.073Z,9.10
2023-01-07T02:47:22.885Z,9.03
2023-01-07T02:49:54.418Z,8.48
2023-01-07T02:52:26.921Z,8.43
2023-01-07T02:58:02.981Z,8.00
2023-01-07T03:01:09.977Z,7.85
2023-01-07T03:03:55.665Z,7.28
2023-01-07T03:06:37.405Z,7.78
2023-01-07T03:09:12.673Z,6.75
2023-01-07T03:12:03.248Z,6.62
2023-01-07T03:14:41.097Z,7.70
2023-01-07T03:17:13.700Z,8.63
2023-01-07T03:19:46.185Z,8.20
2023-01-07T03:25:45.469Z,8.98
2023-01-07T03:28:18.067Z,9.25
2023-01-07T03:30:50.699Z,8.28
2023-01-07T03:33:39.730Z,9.37
2023-01-07T03:36:11.852Z,8.98
2023-01-07T03:38:45.292Z,8.63
2023-01-07T03:41:17.293Z,7.85
2023-01-07T03:43:54.135Z,8.50
2023-01-07T03:46:23.756Z,7.40
2023-01-07T03:48:53.326Z,8.45
2023-01-07T03:51:23.940Z,7.70
2023-01-07T03:53:53.845Z,7.50
2023-01-07T03:56:23.320Z,6.33
2023-01-07T03:58:53.172Z,7.70
2023-01-07T04:01:22.746Z,7.40
2023-01-07T04:03:52.561Z,7.50
2023-01-07T04:06:23.419Z,6.90
2023-01-07T04:08:54.106Z,7.83
2023-01-07T04:11:23.684Z,6.85
2023-01-07T04:14:12.982Z,7.33
2023-01-07T04:16:43.321Z,6.60
2023-01-07T04:19:13.818Z,7.28
2023-01-07T04:21:43.826Z,7.17
2023-01-07T04:24:15.567Z,7.20
2023-01-07T04:26:46.230Z,6.80
2023-01-07T04:29:15.788Z,6.85
2023-01-07T04:31:45.341Z,7.00
2023-01-07T04:34:14.925Z,7.55
2023-01-07T04:36:45.457Z,7.03
2023-01-07T04:39:15.540Z,6.42
2023-01-07T04:41:46.215Z,6.90
2023-01-07T04:44:17.438Z,7.22
2023-01-07T04:46:46.935Z,7.30
2023-01-07T04:49:18.572Z,7.08
2023-01-07T04:51:49.182Z,6.53
2023-01-07T04:54:20.184Z,7.10
2023-01-07T04:56:50.454Z,6.40
2023-01-07T04:59:21.322Z,6.55
2023-01-07T05:01:51.457Z,6.67
2023-01-07T05:04:21.034Z,5.58
2023-01-07T05:06:51.590Z,5.55
2023-01-07T05:09:23.921Z,6.42
2023-01-07T05:11:53.488Z,5.87
2023-01-07T05:14:23.057Z,5.60
2023-01-07T05:16:55.042Z,5.45
2023-01-07T05:19:25.304Z,5.35
2023-01-07T05:21:55.956Z,5.70
2023-01-07T05:24:25.441Z,5.08
2023-01-07T05:26:55.082Z,5.40
2023-01-07T05:29:25.691Z,5.40
2023-01-07T05:31:55.581Z,5.30
2023-01-07T05:34:25.078Z,5.62
2023-01-07T05:36:54.664Z,5.30
2023-01-07T05:39:25.016Z,5.37
2023-01-07T05:41:54.741Z,5.47
2023-01-07T05:44:26.260Z,5.83
2023-01-07T05:46:55.696Z,5.72
2023-01-07T05:49:25.099Z,5.65
2023-01-07T05:51:54.552Z,5.33
2023-01-07T05:54:23.991Z,6.17
2023-01-07T05:56:53.404Z,6.15
2023-01-07T05:59:23.132Z,6.55
2023-01-07T06:01:52.523Z,6.67
2023-01-07T06:04:22.060Z,6.37
2023-01-07T06:06:51.613Z,6.75
2023-01-07T06:09:22.416Z,7.42
2023-01-07T06:11:51.904Z,7.47
2023-01-07T06:14:22.177Z,7.12
2023-01-07T06:16:51.598Z,8.45
2023-01-07T06:19:22.682Z,8.28
2023-01-07T06:21:52.165Z,8.95
2023-01-07T06:24:21.588Z,8.85
2023-01-07T06:26:51.684Z,8.68
2023-01-07T06:29:21.116Z,9.50
2023-01-07T06:31:50.528Z,9.55
2023-01-07T06:34:20.259Z,8.80
2023-01-07T06:36:49.677Z,9.15
2023-01-07T06:39:19.115Z,9.98
2023-01-07T06:41:49.589Z,10.08
2023-01-07T06:44:19.380Z,9.90
2023-01-07T06:46:54.850Z,10.30
2023-01-07T06:49:24.300Z,10.08
2023-01-07T06:51:53.720Z,10.80
2023-01-07T06:54:23.473Z,11.53
2023-01-07T06:56:52.899Z,10.80
2023-01-07T06:59:22.344Z,11.08
2023-01-07T07:01:52.266Z,10.43
2023-01-07T07:04:32.139Z,11.03
2023-01-07T07:07:01.662Z,10.05
2023-01-07T07:09:31.184Z,10.50
2023-01-07T07:12:00.597Z,9.68
2023-01-07T07:14:30.069Z,8.88
2023-01-07T07:17:00.884Z,10.23
2023-01-07T07:19:30.736Z,8.80
2023-01-07T07:22:00.233Z,9.88
2023-01-07T07:24:29.656Z,10.08
2023-01-07T07:27:00.708Z,10.35
2023-01-07T07:29:30.276Z,11.00
2023-01-07T07:31:59.700Z,11.08
2023-01-07T07:34:29.783Z,9.83
2023-01-07T07:36:59.275Z,10.78
2023-01-07T07:39:30.191Z,10.58
2023-01-07T07:42:01.504Z,9.78
2023-01-07T07:44:31.849Z,9.80
2023-01-07T07:47:02.222Z,10.63
2023-01-07T07:49:31.818Z,9.43
2023-01-07T07:52:01.272Z,10.53
2023-01-07T07:54:30.696Z,10.73
2023-01-07T07:57:00.422Z,11.38
2023-01-07T07:59:29.905Z,11.20
2023-01-07T08:01:59.401Z,13.05
2023-01-07T08:04:29.591Z,12.25
2023-01-07T08:06:59.027Z,12.45
2023-01-07T08:09:28.468Z,13.20
2023-01-07T08:11:58.112Z,12.03
2023-01-07T08:14:27.538Z,12.93
2023-01-07T08:16:57.046Z,11.83
2023-01-07T08:19:26.555Z,11.43
2023-01-07T08:21:56.064Z,12.03
2023-01-07T08:24:25.491Z,12.13
2023-01-07T08:26:57.942Z,11.97
2023-01-07T08:31:55.942Z,12.55
2023-01-07T08:34:26.195Z,11.35
2023-01-07T08:36:55.628Z,12.45
2023-01-07T08:39:25.381Z,12.65
2023-01-07T08:41:56.192Z,12.55
2023-01-07T08:44:25.648Z,13.10
2023-01-07T08:46:55.342Z,13.55
2023-01-07T08:49:24.856Z,11.78
2023-01-07T08:51:54.291Z,12.60
2023-01-07T08:54:24.274Z,14.40
2023-01-07T08:56:54.752Z,13.40
2023-01-07T08:59:26.659Z,13.40
2023-01-07T09:01:56.302Z,13.50
2023-01-07T09:04:25.806Z,12.93
2023-01-07T09:06:55.337Z,12.82
2023-01-07T09:09:24.892Z,12.07
2023-01-07T09:11:54.332Z,11.43
2023-01-07T09:14:24.005Z,12.43
2023-01-07T09:16:53.505Z,11.00
2023-01-07T09:19:23.430Z,13.43
2023-01-07T09:21:53.701Z,12.50
2023-01-07T09:24:23.214Z,11.95
2023-01-07T09:26:52.619Z,12.30
2023-01-07T09:29:22.319Z,11.22
2023-01-07T09:31:51.849Z,11.35
2023-01-07T09:34:22.148Z,10.93
2023-01-07T09:36:51.699Z,11.67
2023-01-07T09:39:21.149Z,11.45
2023-01-07T09:42:02.825Z,11.60
2023-01-07T09:44:50.819Z,11.08
2023-01-07T09:47:23.915Z,10.38
2023-01-07T09:52:30.041Z,9.60
2023-01-07T09:55:08.290Z,8.75
2023-01-07T09:57:39.140Z,10.60
2023-01-07T10:00:18.320Z,9.83
2023-01-07T10:03:02.946Z,9.75
2023-01-07T10:05:44.468Z,10.03
2023-01-07T10:08:34.152Z,9.50
2023-01-07T10:11:15.728Z,9.75
2023-01-07T10:13:57.050Z,9.20
2023-01-07T10:16:49.964Z,9.45
2023-01-07T10:19:31.590Z,9.55
2023-01-07T10:22:07.851Z,9.07
2023-01-07T10:24:40.947Z,9.60
2023-01-07T10:27:16.616Z,9.40
2023-01-07T10:29:52.206Z,8.33
2023-01-07T10:32:25.256Z,7.75
2023-01-07T10:34:57.619Z,8.63
2023-01-07T10:40:15.102Z,8.53
2023-01-07T10:42:56.551Z,7.12
2023-01-07T10:45:35.628Z,7.72
2023-01-07T10:48:24.871Z,7.65
2023-01-07T10:51:15.637Z,7.45
2023-01-07T10:54:00.111Z,7.70
2023-01-07T10:56:37.058Z,6.58
2023-01-07T10:59:08.420Z,7.17
2023-01-07T11:01:43.608Z,6.65
2023-01-07T11:04:16.884Z,6.17
2023-01-07T11:06:55.354Z,6.40
2023-01-07T11:09:39.825Z,6.65
2023-01-07T11:12:29.013Z,6.70
2023-01-07T11:15:02.220Z,5.68
2023-01-07T11:17:43.598Z,5.67
2023-01-07T11:20:13.167Z,5.62
2023-01-07T11:22:42.604Z,5.53
2023-01-07T11:25:23.890Z,5.80
2023-01-07T11:27:53.630Z,5.67
2023-01-07T11:30:32.189Z,5.60
2023-01-07T11:33:07.404Z,5.42
2023-01-07T11:35:39.636Z,5.58
2023-01-07T11:38:30.014Z,4.57
2023-01-07T11:41:01.708Z,4.95
2023-01-07T11:43:37.333Z,5.15
2023-01-07T11:46:19.685Z,4.72
2023-01-07T11:48:53.035Z,4.33
2023-01-07T11:51:24.651Z,4.83
2023-01-07T11:53:57.158Z,4.65
2023-01-07T11:56:29.858Z,4.80
2023-01-07T11:59:23.239Z,4.45
2023-01-07T12:01:56.610Z,5.03
2023-01-07T12:04:34.577Z,4.25
2023-01-07T12:07:07.174Z,5.03
2023-01-07T12:09:41.795Z,4.78
2023-01-07T12:12:36.645Z,4.53
2023-01-07T12:15:24.291Z,4.78
2023-01-07T12:18:06.490Z,4.95
2023-01-07T12:20:58.812Z,5.12
2023-01-07T12:23:40.319Z,4.57
2023-01-07T12:26:24.575Z,4.80
2023-01-07T12:28:59.997Z,4.40
2023-01-07T12:31:47.732Z,5.17
2023-01-07T12:34:43.709Z,5.10
2023-01-07T12:37:24.830Z,4.80
2023-01-07T12:39:57.374Z,4.53
2023-01-07T12:42:30.755Z,4.47
2023-01-07T12:45:04.814Z,4.87
2023-01-07T12:47:40.594Z,4.37
2023-01-07T12:50:24.908Z,4.58
2023-01-07T12:53:15.235Z,4.15
2023-01-07T12:55:53.475Z,4.50
2023-01-07T12:58:44.506Z,4.20
2023-01-07T13:01:22.692Z,4.60
2023-01-07T13:03:55.291Z,5.15
2023-01-07T13:06:45.297Z,4.58
2023-01-07T13:09:23.784Z,4.92
2023-01-07T13:12:41.980Z,4.58
2023-01-07T13:14:57.771Z,4.92
2023-01-07T13:17:30.016Z,4.10
2023-01-07T13:19:59.736Z,4.53
2023-01-07T13:22:41.350Z,36.70
2023-01-07T13:25:26.558Z,5.40
2023-01-07T13:28:28.283Z,4.83
2023-01-07T13:31:06.447Z,4.20
2023-01-07T13:34:14.080Z,5.37
2023-01-07T13:37:18.012Z,5.10
2023-01-07T13:40:11.645Z,4.35
2023-01-07T13:42:46.722Z,4.40
2023-01-07T13:45:25.015Z,4.08
2023-01-07T13:48:06.171Z,4.20
2023-01-07T13:51:00.108Z,4.08
2023-01-07T13:53:35.196Z,4.28
2023-01-07T13:56:19.972Z,4.62
2023-01-07T13:58:55.875Z,5.08
2023-01-07T14:01:31.024Z,4.92
2023-01-07T14:04:10.159Z,5.37
2023-01-07T14:06:49.084Z,5.42
2023-01-07T14:09:25.664Z,4.80
2023-01-07T14:12:18.215Z,4.70
2023-01-07T14:15:05.880Z,4.62
2023-01-07T14:17:47.593Z,4.40
2023-01-07T14:20:41.187Z,5.43
2023-01-07T14:25:58.881Z,5.00
2023-01-07T14:28:42.598Z,5.22
2023-01-07T14:31:24.181Z,4.65
2023-01-07T14:34:21.364Z,4.65
2023-01-07T14:37:06.940Z,4.67
2023-01-07T14:39:45.634Z,5.03
2023-01-07T14:42:24.060Z,5.15
2023-01-07T14:44:54.119Z,4.78
2023-01-07T14:47:59.848Z,4.85
2023-01-07T14:50:53.919Z,4.70
2023-01-07T14:53:38.279Z,4.25
2023-01-07T14:56:36.757Z,3.92
2023-01-07T14:59:27.523Z,4.05
2023-01-07T15:02:19.633Z,4.10
2023-01-07T15:05:17.855Z,4.12
2023-01-07T15:07:54.721Z,3.98
2023-01-07T15:10:44.997Z,4.10
2023-01-07T15:13:35.739Z,6.78
2023-01-07T15:16:09.643Z,4.20
2023-01-07T15:18:56.513Z,4.22
2023-01-07T15:21:43.489Z,4.83
2023-01-07T15:24:30.300Z,4.12
2023-01-07T15:27:06.065Z,4.20
2023-01-07T15:29:47.390Z,4.08
2023-01-07T15:32:42.602Z,4.13
2023-01-07T15:35:27.277Z,4.25
2023-01-07T15:37:57.243Z,4.90
2023-01-07T15:40:28.941Z,4.45
2023-01-07T15:43:00.357Z,5.75
2023-01-07T15:45:30.056Z,4.62
2023-01-07T15:48:11.011Z,4.42
2023-01-07T15:50:43.677Z,5.60
2023-01-07T15:53:16.173Z,4.37
2023-01-07T15:56:00.545Z,4.30
2023-01-07T15:58:40.073Z,4.58
2023-01-07T16:01:12.747Z,4.40
2023-01-07T16:03:45.504Z,5.00
2023-01-07T16:06:36.089Z,4.87
2023-01-07T16:09:18.665Z,4.85
2023-01-07T16:11:49.437Z,5.90
2023-01-07T16:14:21.999Z,6.08
2023-01-07T16:17:06.664Z,5.25
2023-01-07T16:19:36.086Z,5.35
2023-01-07T16:22:06.062Z,5.00
2023-01-07T16:24:36.993Z,4.95
2023-01-07T16:27:08.520Z,5.35
2023-01-07T16:29:41.003Z,4.73
2023-01-07T16:32:12.215Z,4.65
2023-01-07T16:34:44.688Z,4.33
2023-01-07T16:39:48.090Z,4.62
2023-01-07T16:42:23.991Z,4.42
2023-01-07T16:44:59.295Z,4.37
2023-01-07T16:47:34.198Z,4.87
2023-01-07T16:50:18.635Z,4.17
2023-01-07T16:52:58.445Z,4.90
2023-01-07T16:55:50.877Z,4.85
2023-01-07T16:58:38.329Z,8.73
2023-01-07T17:01:09.708Z,6.40
2023-01-07T17:03:51.122Z,5.42
2023-01-07T17:08:56.712Z,5.87
2023-01-07T17:11:47.072Z,6.83
2023-01-07T17:14:38.669Z,6.13
2023-01-07T17:17:26.338Z,6.25
2023-01-07T17:20:18.881Z,5.45
2023-01-07T17:22:49.857Z,8.68
2023-01-07T17:25:30.248Z,7.33
2023-01-07T17:28:02.290Z,8.13
2023-01-07T17:30:37.959Z,9.38
2023-01-07T17:33:12.714Z,6.92
2023-01-07T17:35:47.291Z,6.62
2023-01-07T17:38:19.940Z,6.62
2023-01-07T17:40:50.335Z,6.50
2023-01-07T17:43:34.711Z,6.20
2023-01-07T17:46:14.639Z,6.35
2023-01-07T17:48:44.112Z,7.03
2023-01-07T17:51:24.589Z,7.30
2023-01-07T17:53:56.125Z,5.75
2023-01-07T17:56:26.947Z,7.07
2023-01-07T17:58:58.420Z,6.45
2023-01-07T18:01:28.142Z,8.05
2023-01-07T18:03:58.746Z,6.30
2023-01-07T18:06:29.997Z,7.08
2023-01-07T18:08:59.498Z,6.42
2023-01-07T18:11:49.954Z,5.47
2023-01-07T18:14:19.456Z,6.85
2023-01-07T18:16:49.508Z,6.33
2023-01-07T18:19:19.837Z,6.92
2023-01-07T18:21:49.416Z,6.70
2023-01-07T18:24:21.683Z,6.60
2023-01-07T18:26:52.690Z,5.37
2023-01-07T18:29:23.321Z,7.40
2023-01-07T18:31:53.024Z,5.87
2023-01-07T18:34:22.463Z,5.90
2023-01-07T18:36:53.699Z,5.60
2023-01-07T18:39:23.209Z,7.10
2023-01-07T18:41:54.740Z,5.70
2023-01-07T18:44:25.703Z,5.70
2023-01-07T18:46:55.982Z,5.37
2023-01-07T18:49:25.410Z,5.15
2023-01-07T18:51:55.421Z,6.70
2023-01-07T18:54:24.936Z,5.37
2023-01-07T18:56:54.371Z,6.35
2023-01-07T18:59:23.859Z,6.07
2023-01-07T19:01:55.205Z,6.92
2023-01-07T19:04:25.378Z,7.13
2023-01-07T19:06:56.758Z,7.58
2023-01-07T19:09:26.264Z,6.67
2023-01-07T19:12:01.528Z,6.83
2023-01-07T19:14:31.166Z,6.80
2023-01-07T19:17:02.363Z,9.93
2023-01-07T19:19:39.981Z,9.28
2023-01-07T19:22:03.192Z,6.10
2023-01-07T19:24:32.664Z,6.28
2023-01-07T19:27:02.249Z,6.47
2023-01-07T19:29:31.852Z,6.97
2023-01-07T19:32:05.689Z,5.97
2023-01-07T19:34:35.251Z,6.12
2023-01-07T19:37:04.687Z,6.10
2023-01-07T19:39:35.585Z,6.80
2023-01-07T19:42:05.224Z,8.30
2023-01-07T19:44:36.330Z,9.53
2023-01-07T19:47:06.003Z,7.95
2023-01-07T19:49:37.605Z,7.92
2023-01-07T19:52:07.108Z,9.35
2023-01-07T19:54:36.619Z,14.78
2023-01-07T19:57:06.472Z,7.67
2023-01-07T19:59:36.044Z,9.43
2023-01-07T20:02:19.187Z,7.97
2023-01-07T20:04:49.971Z,9.45
2023-01-07T20:07:23.774Z,10.23
2023-01-07T20:09:53.383Z,9.28
2023-01-07T20:12:23.392Z,7.40
2023-01-07T20:14:54.005Z,7.70
2023-01-07T20:17:23.595Z,8.48
2023-01-07T20:19:53.105Z,7.65
2023-01-07T20:22:22.527Z,7.60
2023-01-07T20:24:52.780Z,9.13
2023-01-07T20:27:22.201Z,6.83
2023-01-07T20:29:51.634Z,7.78
2023-01-07T20:32:22.251Z,6.62
2023-01-07T20:34:51.681Z,7.17
2023-01-07T20:37:21.315Z,7.70
2023-01-07T20:39:50.840Z,5.83
2023-01-07T20:42:20.424Z,7.22
2023-01-07T20:44:51.840Z,6.33
2023-01-07T20:47:21.891Z,6.02
2023-01-07T20:49:51.378Z,7.10
2023-01-07T20:52:20.823Z,9.83
2023-01-07T20:54:50.577Z,6.25
2023-01-07T20:57:20.032Z,7.12
2023-01-07T20:59:49.604Z,6.53
2023-01-07T21:02:20.895Z,7.03
2023-01-07T21:04:57.272Z,7.03
2023-01-07T21:07:27.410Z,7.25
2023-01-07T21:09:56.817Z,8.40
2023-01-07T21:15:02.317Z,7.70
2023-01-07T21:17:31.878Z,7.03
2023-01-07T21:20:01.957Z,7.50
2023-01-07T21:22:31.393Z,6.45
2023-01-07T21:25:00.813Z,7.55
2023-01-07T21:27:30.441Z,8.58
2023-01-07T21:29:59.901Z,8.28
2023-01-07T21:32:30.410Z,7.30
2023-01-07T21:35:00.240Z,7.92
2023-01-07T21:37:29.664Z,7.55
2023-01-07T21:39:59.097Z,7.12
2023-01-07T21:42:28.698Z,7.62
2023-01-07T21:44:58.198Z,8.03
2023-01-07T21:47:27.700Z,7.78
2023-01-07T21:49:57.350Z,7.62
2023-01-07T21:52:26.911Z,10.75
2023-01-07T21:54:56.988Z,8.15
2023-01-07T21:57:26.412Z,8.58
2023-01-07T21:59:55.841Z,7.92
2023-01-07T22:02:25.294Z,8.90
2023-01-07T22:04:54.745Z,8.80
2023-01-07T22:07:24.235Z,8.28
2023-01-07T22:09:53.988Z,8.67
2023-01-07T22:12:24.574Z,7.83
2023-01-07T22:14:54.319Z,8.08
2023-01-07T22:17:24.906Z,7.72
2023-01-07T22:19:54.377Z,8.33
2023-01-07T22:22:23.864Z,7.95
2023-01-07T22:24:53.302Z,8.10
2023-01-07T22:27:22.763Z,9.70
2023-01-07T22:29:52.205Z,8.53
2023-01-07T22:34:51.261Z,7.58
2023-01-07T22:37:24.465Z,7.20
2023-01-07T22:39:57.717Z,7.15
2023-01-07T22:42:30.648Z,8.28
2023-01-07T22:45:04.044Z,7.75
2023-01-07T22:47:37.158Z,9.10
2023-01-07T22:50:10.631Z,8.63
2023-01-07T22:52:40.270Z,8.65
2023-01-07T22:55:13.265Z,7.70
2023-01-07T22:57:43.531Z,8.38
2023-01-07T23:00:19.201Z,7.70
2023-01-07T23:02:48.668Z,8.13
2023-01-07T23:05:18.073Z,6.65
2023-01-07T23:07:48.133Z,6.97
2023-01-07T23:10:17.629Z,7.22
2023-01-07T23:15:15.952Z,7.22
2023-01-07T23:17:45.379Z,6.72
2023-01-07T23:20:14.803Z,8.48
2023-01-07T23:22:44.757Z,7.92
2023-01-07T23:25:14.267Z,8.08
2023-01-07T23:30:13.560Z,7.70
2023-01-07T23:32:42.994Z,7.42
2023-01-07T23:35:16.692Z,7.70
2023-01-07T23:37:46.115Z,8.08
2023-01-07T23:40:15.571Z,8.60
2023-01-07T23:42:48.840Z,8.88
2023-01-07T23:45:18.400Z,9.33
2023-01-07T23:47:47.829Z,8.88
2023-01-07T23:50:17.402Z,9.75
2023-01-07T23:52:46.823Z,10.00
2023-01-07T23:55:16.440Z,10.15
2023-01-07T23:57:46.129Z,10.05
